CheckWX is a tool to help pilots better visualize weather data.  It is not intended as a substitute for an official pre-flight weather briefing.

14:51:44 UTC

KSSC TAF
Shaw AFB Airport
Sumter, South Carolina, USA
TAF KSSC 221500Z 2215/2321 28009KT 9999 SKC QNH2990INS BECMG 2215/2216 27015G25KT 9999 SKC QNH2992INS BECMG 2223/2224 29006KT 9999 FEW050 QNH2997INS TX20/2220Z TN04/2311Z LAST NO AMDS AFT 2220 NEXT 2507

Mar-22@
15:00 UTC

Mar-22 @ 15:00 UTC

Mar-23@
21:00 UTC

Mar-23 @ 21:00 UTC

TAF KSSC 221500Z 2215/2321 28009KT 9999 SKC QNH2990INS
Wind
  • 280° at 9 KTS
Cloud Levels
  • Clear skies

Mar-22@
15:00 UTC

Mar-22 @ 15:00 UTC

Mar-22@
23:00 UTC

Mar-22 @ 23:00 UTC

BECMG 2215/2216 27015G25KT 9999 SKC QNH2992INS

Expired

Wind
  • 270° at 15 KTS
  • {Gusting to 25 KTS
Cloud Levels
  • Clear skies

Mar-22@
23:00 UTC

Mar-22 @ 23:00 UTC

Mar-23@
21:00 UTC

Mar-23 @ 21:00 UTC

BECMG 2223/2224 29006KT 9999 FEW050 QNH2997INS TX20/2220Z TN04/2311Z LAST NO AMDS AFT 2220 NEXT 2507

Becoming

Becoming Conditions expected by Sat, Mar 23, 2019 @ 00:00 UTC

Wind
  • 290° at 6 KTS
Cloud Levels
  • Few at 5,000' AGL